createdAt,value
2022-09-17T00:00:20.622Z,64.30
2022-09-17T00:03:26.985Z,64.47
2022-09-17T00:06:34.098Z,64.61
2022-09-17T00:09:40.149Z,64.70
2022-09-17T00:12:45.986Z,65.65
2022-09-17T00:15:52.603Z,66.51
2022-09-17T00:18:59.670Z,66.96
2022-09-17T00:22:05.546Z,66.99
2022-09-17T00:25:12.211Z,67.18
2022-09-17T00:28:19.571Z,67.03
2022-09-17T00:31:26.341Z,67.08
2022-09-17T00:34:32.192Z,67.09
2022-09-17T00:37:38.094Z,67.06
2022-09-17T00:40:43.989Z,67.33
2022-09-17T00:43:52.141Z,67.43
2022-09-17T00:46:58.952Z,67.32
2022-09-17T00:50:09.210Z,67.17
2022-09-17T00:53:18.714Z,67.22
2022-09-17T00:56:28.095Z,67.20
2022-09-17T00:59:34.347Z,66.99
2022-09-17T01:02:39.086Z,67.50
2022-09-17T01:05:50.170Z,67.67
2022-09-17T01:09:14.870Z,67.51
2022-09-17T01:12:38.170Z,67.53
2022-09-17T01:15:50.369Z,67.64
2022-09-17T01:19:11.925Z,68.13
2022-09-17T01:22:25.563Z,67.74
2022-09-17T01:25:45.681Z,67.67
2022-09-17T01:28:58.515Z,67.84
2022-09-17T01:32:11.326Z,67.66
2022-09-17T01:35:23.165Z,67.41
2022-09-17T01:38:36.149Z,67.16
2022-09-17T01:41:47.745Z,67.23
2022-09-17T01:45:01.819Z,67.20
2022-09-17T01:48:12.874Z,67.38
2022-09-17T01:51:22.290Z,67.52
2022-09-17T01:54:32.605Z,67.37
2022-09-17T01:57:43.891Z,67.36
2022-09-17T02:00:53.500Z,67.43
2022-09-17T02:04:04.633Z,67.40
2022-09-17T02:07:16.333Z,67.55
2022-09-17T02:10:25.251Z,67.85
2022-09-17T02:13:37.564Z,67.99
2022-09-17T02:16:49.534Z,67.96
2022-09-17T02:19:56.861Z,67.91
2022-09-17T02:23:09.239Z,67.65
2022-09-17T02:26:19.614Z,67.66
2022-09-17T02:29:33.626Z,67.48
2022-09-17T02:32:39.717Z,67.40
2022-09-17T02:35:47.797Z,67.48
2022-09-17T02:39:03.119Z,67.43
2022-09-17T02:42:17.716Z,67.11
2022-09-17T02:45:37.471Z,66.79
2022-09-17T02:49:08.849Z,66.24
2022-09-17T02:52:27.059Z,65.99
2022-09-17T02:55:42.883Z,66.21
2022-09-17T02:58:54.686Z,67.01
2022-09-17T03:02:05.175Z,67.06
2022-09-17T03:05:12.024Z,67.15
2022-09-17T03:08:20.419Z,67.15
2022-09-17T03:11:26.925Z,67.04
2022-09-17T03:14:32.911Z,66.73
2022-09-17T03:17:39.095Z,66.55
2022-09-17T03:20:43.554Z,66.16
2022-09-17T03:23:50.691Z,66.24
2022-09-17T03:26:57.145Z,66.04
2022-09-17T03:30:03.033Z,65.71
2022-09-17T03:33:09.128Z,65.96
2022-09-17T03:36:15.275Z,66.12
2022-09-17T03:39:21.330Z,65.78
2022-09-17T03:42:27.525Z,65.48
2022-09-17T03:45:31.784Z,65.58
2022-09-17T03:48:39.867Z,65.76
2022-09-17T03:51:45.966Z,66.29
2022-09-17T03:54:52.092Z,66.33
2022-09-17T03:57:58.168Z,66.38
2022-09-17T04:01:04.833Z,66.41
2022-09-17T04:04:11.141Z,66.06
2022-09-17T04:07:17.278Z,65.97
2022-09-17T04:10:23.759Z,65.62
2022-09-17T04:13:29.955Z,65.89
2022-09-17T04:16:34.223Z,66.57
2022-09-17T04:19:40.198Z,66.95
2022-09-17T04:22:46.043Z,67.16
2022-09-17T04:25:51.986Z,66.92
2022-09-17T04:28:58.121Z,66.74
2022-09-17T04:32:04.694Z,66.36
2022-09-17T04:35:11.257Z,66.01
2022-09-17T04:38:18.748Z,65.98
2022-09-17T04:41:24.627Z,65.53
2022-09-17T04:44:30.517Z,65.52
2022-09-17T04:47:39.333Z,65.63
2022-09-17T04:50:45.203Z,65.84
2022-09-17T04:53:51.367Z,65.81
2022-09-17T04:56:57.486Z,66.34
2022-09-17T05:00:03.914Z,66.70
2022-09-17T05:03:10.229Z,66.54
2022-09-17T05:06:16.434Z,66.68
2022-09-17T05:09:20.938Z,66.72
2022-09-17T05:12:29.259Z,67.02
2022-09-17T05:15:38.671Z,67.58
2022-09-17T05:18:43.229Z,67.89
2022-09-17T05:21:49.090Z,68.39
2022-09-17T05:24:54.959Z,68.05
2022-09-17T05:28:02.302Z,67.72
2022-09-17T05:31:09.053Z,67.62
2022-09-17T05:34:15.355Z,67.52
2022-09-17T05:37:19.798Z,67.87
2022-09-17T05:40:24.084Z,68.30
2022-09-17T05:43:28.384Z,68.42
2022-09-17T05:46:32.650Z,68.58
2022-09-17T05:49:37.063Z,68.76
2022-09-17T05:52:41.539Z,68.86
2022-09-17T05:55:45.752Z,69.33
2022-09-17T05:58:50.022Z,69.49
2022-09-17T06:01:54.326Z,69.35
2022-09-17T06:05:00.934Z,69.60
2022-09-17T06:08:05.824Z,69.93
2022-09-17T06:11:10.901Z,69.99
2022-09-17T06:14:15.648Z,70.03
2022-09-17T06:17:22.183Z,69.83
2022-09-17T06:20:26.663Z,69.67
2022-09-17T06:23:35.377Z,69.56
2022-09-17T06:26:39.617Z,69.90
2022-09-17T06:29:43.810Z,69.97
2022-09-17T06:32:48.026Z,69.64
2022-09-17T06:35:57.341Z,69.55
2022-09-17T06:39:01.673Z,69.54
2022-09-17T06:42:06.426Z,70.04
2022-09-17T06:45:16.378Z,70.37
2022-09-17T06:48:21.098Z,70.70
2022-09-17T06:51:25.289Z,70.57
2022-09-17T06:54:29.518Z,70.33
2022-09-17T06:57:33.743Z,70.12
2022-09-17T07:00:37.977Z,70.08
2022-09-17T07:03:44.122Z,70.24
2022-09-17T07:06:48.341Z,69.90
2022-09-17T07:09:53.833Z,68.63
2022-09-17T07:12:58.118Z,68.12
2022-09-17T07:16:03.423Z,67.58
2022-09-17T07:19:09.012Z,67.24
2022-09-17T07:22:14.154Z,66.25
2022-09-17T07:25:18.366Z,65.80
2022-09-17T07:28:22.768Z,64.16
2022-09-17T07:31:27.061Z,62.92
2022-09-17T07:34:31.303Z,62.07
2022-09-17T07:37:35.558Z,62.30
2022-09-17T07:40:39.746Z,62.59
2022-09-17T07:43:44.354Z,62.12
2022-09-17T07:46:48.623Z,61.05
2022-09-17T07:49:52.861Z,59.45
2022-09-17T07:52:57.065Z,59.16
2022-09-17T07:56:01.818Z,57.14
2022-09-17T07:59:06.390Z,56.41
2022-09-17T08:02:13.052Z,57.10
2022-09-17T08:05:17.445Z,57.25
2022-09-17T08:08:21.656Z,57.65
2022-09-17T08:11:51.659Z,58.05
2022-09-17T08:14:51.424Z,58.41
2022-09-17T08:17:55.620Z,58.73
2022-09-17T08:21:00.509Z,58.52
2022-09-17T08:24:05.042Z,58.45
2022-09-17T08:27:09.239Z,59.00
2022-09-17T08:30:13.704Z,59.20
2022-09-17T08:33:18.230Z,59.40
2022-09-17T08:36:23.047Z,59.69
2022-09-17T08:39:27.380Z,60.09
2022-09-17T08:42:38.849Z,60.37
2022-09-17T08:45:43.421Z,60.17
2022-09-17T08:48:51.295Z,60.47
2022-09-17T08:52:03.363Z,60.52
2022-09-17T08:55:15.345Z,60.98
2022-09-17T08:58:36.725Z,60.19
2022-09-17T09:01:43.905Z,60.43
2022-09-17T09:05:03.641Z,60.90
2022-09-17T09:08:14.064Z,62.50
2022-09-17T09:11:20.132Z,62.11
2022-09-17T09:14:26.442Z,61.24
2022-09-17T09:17:33.725Z,58.35
2022-09-17T09:20:42.942Z,56.42
2022-09-17T09:23:53.651Z,57.24
2022-09-17T09:27:02.610Z,57.80
2022-09-17T09:30:08.802Z,57.96
2022-09-17T09:33:15.512Z,58.35
2022-09-17T09:36:22.149Z,59.34
2022-09-17T09:39:32.247Z,59.46
2022-09-17T09:42:40.381Z,58.86
2022-09-17T09:45:50.413Z,58.36
2022-09-17T09:49:01.453Z,59.06
2022-09-17T09:52:11.430Z,58.54
2022-09-17T09:55:26.851Z,57.09
2022-09-17T09:58:35.733Z,57.36
2022-09-17T10:01:41.785Z,59.96
2022-09-17T10:04:48.319Z,61.14
2022-09-17T10:07:55.790Z,62.17
2022-09-17T10:11:01.528Z,59.41
2022-09-17T10:14:17.480Z,59.11
2022-09-17T10:17:23.001Z,56.91
2022-09-17T10:20:27.290Z,57.01
2022-09-17T10:23:34.632Z,57.42
2022-09-17T10:26:39.338Z,57.91
2022-09-17T10:29:46.142Z,58.76
2022-09-17T10:33:11.438Z,56.93
2022-09-17T10:36:15.641Z,58.73
2022-09-17T10:39:36.827Z,56.82
2022-09-17T10:42:40.998Z,55.17
2022-09-17T10:45:46.774Z,54.49
2022-09-17T10:48:58.558Z,55.17
2022-09-17T10:52:11.730Z,53.98
2022-09-17T10:55:22.590Z,54.78
2022-09-17T10:58:34.185Z,53.03
2022-09-17T11:01:46.095Z,53.21
2022-09-17T11:04:55.683Z,52.77
2022-09-17T11:08:06.587Z,53.41
2022-09-17T11:11:11.909Z,53.78
2022-09-17T11:14:22.025Z,52.96
2022-09-17T11:17:46.949Z,53.52
2022-09-17T11:21:08.942Z,53.86
2022-09-17T11:24:30.886Z,54.64
2022-09-17T11:27:47.240Z,54.57
2022-09-17T11:30:56.008Z,54.06
2022-09-17T11:34:23.454Z,53.69
2022-09-17T11:37:30.138Z,53.87
2022-09-17T11:40:39.181Z,57.70
2022-09-17T11:43:46.373Z,55.65
2022-09-17T11:46:54.134Z,55.67
2022-09-17T11:50:01.877Z,54.93
2022-09-17T11:53:09.954Z,54.65
2022-09-17T11:56:17.035Z,54.74
2022-09-17T11:59:24.349Z,54.93
2022-09-17T12:02:37.786Z,55.21
2022-09-17T12:05:44.599Z,55.49
2022-09-17T12:08:55.091Z,55.57
2022-09-17T12:12:02.325Z,55.66
2022-09-17T12:15:08.706Z,56.21
2022-09-17T12:18:31.853Z,55.65
2022-09-17T12:21:39.257Z,56.57
2022-09-17T12:24:43.751Z,56.46
2022-09-17T12:27:54.295Z,56.70
2022-09-17T12:31:03.696Z,57.36
2022-09-17T12:34:19.314Z,56.02
2022-09-17T12:37:28.290Z,56.03
2022-09-17T12:40:33.772Z,57.16
2022-09-17T12:43:55.362Z,56.32
2022-09-17T12:47:09.733Z,56.50
2022-09-17T12:50:20.346Z,56.32
2022-09-17T12:53:29.891Z,56.57
2022-09-17T12:56:40.834Z,55.45
2022-09-17T12:59:49.274Z,55.52
2022-09-17T13:02:59.372Z,56.09
2022-09-17T13:06:16.952Z,56.64
2022-09-17T13:09:40.551Z,56.62
2022-09-17T13:12:47.607Z,55.26
2022-09-17T13:15:59.421Z,55.54
2022-09-17T13:19:15.972Z,55.16
2022-09-17T13:22:21.939Z,54.92
2022-09-17T13:25:27.282Z,56.57
2022-09-17T13:28:43.296Z,56.25
2022-09-17T13:31:51.153Z,56.41
2022-09-17T13:34:55.533Z,59.08
2022-09-17T13:38:00.330Z,58.73
2022-09-17T13:41:17.935Z,57.97
2022-09-17T13:44:24.166Z,57.91
2022-09-17T13:47:31.257Z,58.46
2022-09-17T13:50:36.891Z,58.60
2022-09-17T13:53:41.178Z,58.28
2022-09-17T13:56:47.254Z,58.42
2022-09-17T13:59:55.950Z,58.43
2022-09-17T14:03:20.139Z,58.38
2022-09-17T14:06:41.398Z,58.40
2022-09-17T14:09:55.781Z,58.58
2022-09-17T14:13:02.858Z,58.94
2022-09-17T14:16:24.781Z,58.66
2022-09-17T14:19:37.031Z,58.86
2022-09-17T14:22:41.631Z,59.19
2022-09-17T14:25:49.621Z,58.40
2022-09-17T14:28:57.286Z,58.80
2022-09-17T14:32:01.648Z,59.71
2022-09-17T14:35:19.937Z,59.54
2022-09-17T14:38:25.856Z,60.29
2022-09-17T14:41:35.664Z,60.09
2022-09-17T14:44:48.314Z,60.96
2022-09-17T14:48:12.610Z,62.88
2022-09-17T14:51:26.073Z,61.21
2022-09-17T14:54:35.834Z,59.95
2022-09-17T14:57:40.807Z,59.00
2022-09-17T15:00:52.023Z,57.32
2022-09-17T15:04:09.601Z,57.17
2022-09-17T15:07:14.960Z,57.87
2022-09-17T15:10:20.152Z,58.53
2022-09-17T15:13:27.354Z,58.07
2022-09-17T15:16:33.535Z,58.44
2022-09-17T15:19:39.049Z,58.79
2022-09-17T15:22:45.254Z,59.02
2022-09-17T15:25:50.649Z,59.66
2022-09-17T15:28:56.415Z,60.56
2022-09-17T15:32:01.533Z,60.50
2022-09-17T15:35:28.307Z,60.41
2022-09-17T15:38:33.655Z,60.59
2022-09-17T15:41:39.789Z,60.84
2022-09-17T15:44:45.060Z,61.26
2022-09-17T15:47:56.695Z,61.25
2022-09-17T15:51:02.053Z,61.34
2022-09-17T15:54:09.391Z,61.77
2022-09-17T15:57:17.682Z,61.58
2022-09-17T16:00:22.457Z,61.77
2022-09-17T16:03:44.552Z,62.12
2022-09-17T16:06:53.186Z,63.52
2022-09-17T16:09:59.503Z,66.41
2022-09-17T16:13:03.757Z,66.33
2022-09-17T16:16:12.579Z,65.00
2022-09-17T16:19:16.801Z,63.76
2022-09-17T16:22:21.184Z,62.43
2022-09-17T16:25:27.306Z,61.55
2022-09-17T16:28:32.046Z,61.09
2022-09-17T16:31:36.315Z,60.58
2022-09-17T16:34:40.529Z,59.82
2022-09-17T16:37:44.805Z,58.30
2022-09-17T16:40:49.968Z,57.92
2022-09-17T16:43:54.210Z,58.57
2022-09-17T16:46:58.601Z,59.51
2022-09-17T16:50:02.886Z,59.90
2022-09-17T16:53:07.076Z,60.43
2022-09-17T16:56:11.860Z,60.89
2022-09-17T16:59:16.340Z,61.29
2022-09-17T17:02:20.537Z,61.68
2022-09-17T17:05:25.210Z,62.05
2022-09-17T17:08:29.428Z,62.28
2022-09-17T17:11:33.848Z,64.91
2022-09-17T17:14:38.174Z,66.99
2022-09-17T17:17:42.402Z,66.21
2022-09-17T17:20:47.689Z,65.45
2022-09-17T17:23:52.524Z,64.60
2022-09-17T17:26:56.922Z,64.06
2022-09-17T17:30:04.624Z,64.15
2022-09-17T17:33:08.846Z,63.86
2022-09-17T17:36:14.226Z,63.52
2022-09-17T17:39:18.530Z,62.98
2022-09-17T17:42:22.738Z,62.82
2022-09-17T17:45:26.945Z,62.70
2022-09-17T17:48:31.173Z,62.33
2022-09-17T17:51:35.635Z,62.16
2022-09-17T17:54:39.871Z,62.00
2022-09-17T17:57:44.137Z,61.89
2022-09-17T18:00:48.373Z,61.89
2022-09-17T18:03:56.728Z,61.80
2022-09-17T18:07:00.918Z,61.74
2022-09-17T18:10:05.498Z,61.66
2022-09-17T18:13:09.916Z,61.98
2022-09-17T18:16:15.575Z,61.89
2022-09-17T18:19:19.917Z,61.80
2022-09-17T18:22:24.142Z,61.80
2022-09-17T18:25:28.909Z,61.72
2022-09-17T18:28:34.961Z,61.82
2022-09-17T18:31:39.434Z,62.01
2022-09-17T18:34:43.901Z,61.97
2022-09-17T18:37:48.103Z,61.89
2022-09-17T18:40:52.751Z,61.90
2022-09-17T18:43:56.950Z,61.73
2022-09-17T18:47:01.237Z,62.16
2022-09-17T18:50:05.754Z,62.23
2022-09-17T18:53:10.139Z,62.39
2022-09-17T18:56:16.366Z,62.41
2022-09-17T18:59:20.861Z,62.19
2022-09-17T19:02:25.411Z,61.82
2022-09-17T19:05:30.614Z,61.52
2022-09-17T19:08:35.129Z,61.08
2022-09-17T19:11:39.350Z,60.89
2022-09-17T19:14:43.594Z,60.66
2022-09-17T19:17:47.766Z,60.52
2022-09-17T19:20:51.982Z,60.70
2022-09-17T19:23:56.530Z,60.61
2022-09-17T19:27:01.767Z,60.64
2022-09-17T19:30:07.001Z,60.78
2022-09-17T19:33:11.298Z,61.20
2022-09-17T19:36:16.573Z,61.29
2022-09-17T19:39:20.766Z,61.21
2022-09-17T19:42:25.912Z,61.52
2022-09-17T19:45:31.134Z,61.68
2022-09-17T19:48:36.695Z,61.80
2022-09-17T19:51:42.219Z,61.81
2022-09-17T19:54:46.412Z,62.20
2022-09-17T19:57:50.607Z,62.13
2022-09-17T20:00:57.446Z,62.06
2022-09-17T20:04:02.056Z,62.27
2022-09-17T20:07:06.385Z,62.09
2022-09-17T20:10:10.982Z,62.18
2022-09-17T20:13:15.438Z,62.44
2022-09-17T20:16:21.018Z,62.49
2022-09-17T20:19:25.623Z,62.24
2022-09-17T20:22:30.507Z,62.46
2022-09-17T20:25:35.083Z,62.32
2022-09-17T20:28:39.305Z,62.59
2022-09-17T20:31:43.624Z,62.88
2022-09-17T20:34:50.046Z,62.55
2022-09-17T20:39:00.003Z,62.40
2022-09-17T20:41:19.142Z,62.63
2022-09-17T20:44:23.602Z,62.66
2022-09-17T20:47:28.026Z,62.86
2022-09-17T20:50:32.552Z,62.62
2022-09-17T20:53:37.534Z,62.61
2022-09-17T20:56:42.329Z,62.62
2022-09-17T20:59:53.112Z,62.56
2022-09-17T21:02:57.674Z,62.50
2022-09-17T21:06:02.001Z,62.54
2022-09-17T21:09:07.369Z,62.88
2022-09-17T21:12:11.889Z,62.88
2022-09-17T21:15:16.185Z,62.98
2022-09-17T21:18:20.386Z,63.28
2022-09-17T21:21:24.675Z,63.14
2022-09-17T21:24:28.878Z,63.02
2022-09-17T21:27:33.630Z,63.01
2022-09-17T21:30:38.094Z,62.80
2022-09-17T21:33:43.187Z,63.05
2022-09-17T21:36:48.387Z,63.04
2022-09-17T21:39:52.607Z,63.16
2022-09-17T21:42:57.089Z,63.46
2022-09-17T21:46:02.256Z,63.47
2022-09-17T21:49:06.561Z,63.31
2022-09-17T21:52:10.930Z,63.40
2022-09-17T21:55:15.419Z,63.44
2022-09-17T21:58:19.619Z,63.74
2022-09-17T22:01:25.293Z,63.39
2022-09-17T22:04:29.541Z,63.38
2022-09-17T22:07:33.968Z,63.29
2022-09-17T22:10:38.205Z,63.40
2022-09-17T22:13:42.795Z,63.71
2022-09-17T22:16:47.994Z,63.68
2022-09-17T22:19:52.402Z,63.61
2022-09-17T22:22:56.828Z,63.92
2022-09-17T22:26:05.513Z,63.82
2022-09-17T22:29:10.650Z,63.78
2022-09-17T22:32:15.205Z,63.46
2022-09-17T22:35:19.413Z,63.55
2022-09-17T22:38:23.598Z,63.52
2022-09-17T22:41:28.660Z,63.35
2022-09-17T22:44:32.839Z,63.46
2022-09-17T22:47:37.203Z,63.66
2022-09-17T22:50:41.689Z,64.24
2022-09-17T22:53:46.298Z,64.34
2022-09-17T22:56:50.780Z,64.69
2022-09-17T22:59:55.218Z,64.65
2022-09-17T23:02:59.477Z,65.07
2022-09-17T23:06:04.921Z,65.36
2022-09-17T23:09:09.305Z,65.54
2022-09-17T23:12:13.738Z,65.80
2022-09-17T23:15:18.633Z,66.02
2022-09-17T23:18:23.126Z,66.09
2022-09-17T23:21:27.566Z,66.18
2022-09-17T23:24:34.421Z,66.28
2022-09-17T23:27:38.853Z,66.42
2022-09-17T23:30:43.547Z,66.35
2022-09-17T23:33:48.778Z,66.50
2022-09-17T23:36:53.512Z,66.67
2022-09-17T23:39:57.982Z,66.61
2022-09-17T23:43:02.270Z,66.59
2022-09-17T23:46:07.000Z,66.75
2022-09-17T23:49:13.224Z,67.05
2022-09-17T23:52:17.557Z,67.30
2022-09-17T23:55:21.753Z,67.36
2022-09-17T23:58:26.154Z,67.24
